sensor_id;sensor_type;location;lat;lon;timestamp;P1;durP1;ratioP1;P2;durP2;ratioP2
80653;SDS011;70020;45.524;10.240;2023-05-10T06:26:52;8.77;;;6.50;;
80653;SDS011;70020;45.524;10.240;2023-05-10T06:29:18;9.15;;;6.78;;
80653;SDS011;70020;45.524;10.240;2023-05-10T06:31:44;8.63;;;6.68;;
80653;SDS011;70020;45.524;10.240;2023-05-10T06:34:11;9.63;;;7.30;;
80653;SDS011;70020;45.524;10.240;2023-05-10T06:36:37;10.27;;;7.22;;
80653;SDS011;70020;45.524;10.240;2023-05-10T06:39:02;9.20;;;7.43;;
80653;SDS011;70020;45.524;10.240;2023-05-10T06:41:28;11.73;;;7.30;;
80653;SDS011;70020;45.524;10.240;2023-05-10T06:43:54;11.43;;;7.38;;
80653;SDS011;70020;45.524;10.240;2023-05-10T06:46:20;12.63;;;8.98;;
80653;SDS011;70020;45.524;10.240;2023-05-10T06:48:45;8.80;;;7.70;;
80653;SDS011;70020;45.524;10.240;2023-05-10T06:51:11;9.07;;;7.73;;
80653;SDS011;70020;45.524;10.240;2023-05-10T06:53:36;9.30;;;7.50;;
80653;SDS011;70020;45.524;10.240;2023-05-10T06:56:02;10.88;;;7.70;;
80653;SDS011;70020;45.524;10.240;2023-05-10T06:58:28;9.60;;;7.40;;
80653;SDS011;70020;45.524;10.240;2023-05-10T07:00:53;10.20;;;7.80;;
80653;SDS011;70020;45.524;10.240;2023-05-10T07:03:19;13.90;;;7.97;;
80653;SDS011;70020;45.524;10.240;2023-05-10T07:05:45;9.90;;;8.00;;
80653;SDS011;70020;45.524;10.240;2023-05-10T07:08:11;14.02;;;8.15;;
80653;SDS011;70020;45.524;10.240;2023-05-10T07:10:36;13.27;;;8.80;;
80653;SDS011;70020;45.524;10.240;2023-05-10T07:13:05;10.47;;;8.30;;
80653;SDS011;70020;45.524;10.240;2023-05-10T07:15:30;12.07;;;8.60;;
80653;SDS011;70020;45.524;10.240;2023-05-10T07:17:56;12.88;;;9.27;;
80653;SDS011;70020;45.524;10.240;2023-05-10T07:20:22;10.63;;;9.20;;
80653;SDS011;70020;45.524;10.240;2023-05-10T07:22:51;10.88;;;9.45;;
80653;SDS011;70020;45.524;10.240;2023-05-10T07:25:17;10.45;;;9.20;;
80653;SDS011;70020;45.524;10.240;2023-05-10T07:27:42;11.80;;;10.45;;
80653;SDS011;70020;45.524;10.240;2023-05-10T07:30:08;13.10;;;10.85;;
80653;SDS011;70020;45.524;10.240;2023-05-10T07:32:35;11.40;;;10.20;;
80653;SDS011;70020;45.524;10.240;2023-05-10T07:37:27;12.05;;;9.95;;
80653;SDS011;70020;45.524;10.240;2023-05-10T07:39:52;11.67;;;10.30;;
80653;SDS011;70020;45.524;10.240;2023-05-10T07:42:18;12.07;;;10.75;;
80653;SDS011;70020;45.524;10.240;2023-05-10T07:44:44;13.73;;;10.98;;
80653;SDS011;70020;45.524;10.240;2023-05-10T07:47:10;12.93;;;11.15;;
80653;SDS011;70020;45.524;10.240;2023-05-10T07:49:36;13.93;;;11.52;;
80653;SDS011;70020;45.524;10.240;2023-05-10T07:52:03;13.32;;;11.48;;
80653;SDS011;70020;45.524;10.240;2023-05-10T07:54:28;14.30;;;11.20;;
80653;SDS011;70020;45.524;10.240;2023-05-10T07:56:54;15.15;;;11.80;;
80653;SDS011;70020;45.524;10.240;2023-05-10T07:59:20;12.80;;;10.57;;
80653;SDS011;70020;45.524;10.240;2023-05-10T08:01:46;12.25;;;10.23;;
80653;SDS011;70020;45.524;10.240;2023-05-10T08:04:12;10.60;;;9.50;;
80653;SDS011;70020;45.524;10.240;2023-05-10T08:06:37;11.53;;;9.30;;
80653;SDS011;70020;45.524;10.240;2023-05-10T08:09:03;10.50;;;9.43;;
80653;SDS011;70020;45.524;10.240;2023-05-10T08:11:29;9.43;;;8.27;;
80653;SDS011;70020;45.524;10.240;2023-05-10T08:13:55;9.43;;;8.43;;
80653;SDS011;70020;45.524;10.240;2023-05-10T08:16:20;8.90;;;7.77;;
80653;SDS011;70020;45.524;10.240;2023-05-10T08:18:46;8.93;;;7.75;;
80653;SDS011;70020;45.524;10.240;2023-05-10T08:23:38;7.43;;;6.72;;
80653;SDS011;70020;45.524;10.240;2023-05-10T08:26:04;8.77;;;7.28;;
80653;SDS011;70020;45.524;10.240;2023-05-10T08:28:30;8.77;;;6.77;;
80653;SDS011;70020;45.524;10.240;2023-05-10T08:30:55;8.00;;;6.47;;
80653;SDS011;70020;45.524;10.240;2023-05-10T08:33:21;8.60;;;6.40;;
80653;SDS011;70020;45.524;10.240;2023-05-10T08:35:47;7.00;;;6.30;;
80653;SDS011;70020;45.524;10.240;2023-05-10T08:38:12;7.57;;;6.30;;
80653;SDS011;70020;45.524;10.240;2023-05-10T08:40:38;7.07;;;6.37;;
80653;SDS011;70020;45.524;10.240;2023-05-10T08:43:08;6.85;;;5.90;;
80653;SDS011;70020;45.524;10.240;2023-05-10T08:45:44;7.50;;;6.28;;
80653;SDS011;70020;45.524;10.240;2023-05-10T08:48:13;8.32;;;7.47;;
80653;SDS011;70020;45.524;10.240;2023-05-10T08:50:40;10.02;;;7.30;;
80653;SDS011;70020;45.524;10.240;2023-05-10T08:53:09;8.50;;;7.15;;
80653;SDS011;70020;45.524;10.240;2023-05-10T08:55:37;7.78;;;6.97;;
80653;SDS011;70020;45.524;10.240;2023-05-10T08:58:04;9.82;;;7.80;;
80653;SDS011;70020;45.524;10.240;2023-05-10T09:00:30;8.80;;;7.90;;
80653;SDS011;70020;45.524;10.240;2023-05-10T09:02:59;8.60;;;7.05;;
80653;SDS011;70020;45.524;10.240;2023-05-10T09:05:25;8.05;;;6.68;;
80653;SDS011;70020;45.524;10.240;2023-05-10T09:07:51;8.47;;;7.50;;
80653;SDS011;70020;45.524;10.240;2023-05-10T09:10:16;6.85;;;6.15;;
80653;SDS011;70020;45.524;10.240;2023-05-10T09:15:10;6.47;;;5.68;;
80653;SDS011;70020;45.524;10.240;2023-05-10T09:17:37;6.53;;;5.78;;
80653;SDS011;70020;45.524;10.240;2023-05-10T09:20:05;6.55;;;5.95;;
80653;SDS011;70020;45.524;10.240;2023-05-10T09:22:31;5.55;;;4.95;;
80653;SDS011;70020;45.524;10.240;2023-05-10T09:25:10;7.13;;;5.50;;
80653;SDS011;70020;45.524;10.240;2023-05-10T09:27:40;7.50;;;6.50;;
80653;SDS011;70020;45.524;10.240;2023-05-10T09:30:07;6.15;;;5.55;;
80653;SDS011;70020;45.524;10.240;2023-05-10T09:35:42;8.63;;;7.57;;
80653;SDS011;70020;45.524;10.240;2023-05-10T09:38:02;10.40;;;9.27;;
80653;SDS011;70020;45.524;10.240;2023-05-10T09:40:30;12.10;;;9.38;;
80653;SDS011;70020;45.524;10.240;2023-05-10T09:43:10;10.75;;;9.45;;
80653;SDS011;70020;45.524;10.240;2023-05-10T09:45:36;8.82;;;7.93;;
80653;SDS011;70020;45.524;10.240;2023-05-10T09:48:02;8.57;;;7.60;;
80653;SDS011;70020;45.524;10.240;2023-05-10T09:50:28;8.20;;;7.40;;
80653;SDS011;70020;45.524;10.240;2023-05-10T09:52:56;9.48;;;7.00;;
80653;SDS011;70020;45.524;10.240;2023-05-10T09:55:39;9.13;;;7.00;;
80653;SDS011;70020;45.524;10.240;2023-05-10T09:58:04;9.15;;;6.93;;
80653;SDS011;70020;45.524;10.240;2023-05-10T10:00:35;9.38;;;7.05;;
80653;SDS011;70020;45.524;10.240;2023-05-10T10:03:05;9.00;;;6.97;;
80653;SDS011;70020;45.524;10.240;2023-05-10T10:05:31;7.68;;;6.88;;
80653;SDS011;70020;45.524;10.240;2023-05-10T10:07:59;8.70;;;7.45;;
80653;SDS011;70020;45.524;10.240;2023-05-10T10:10:26;9.93;;;7.80;;
80653;SDS011;70020;45.524;10.240;2023-05-10T10:12:53;10.10;;;8.30;;
80653;SDS011;70020;45.524;10.240;2023-05-10T10:15:20;10.80;;;8.93;;
80653;SDS011;70020;45.524;10.240;2023-05-10T10:17:48;10.75;;;9.35;;
80653;SDS011;70020;45.524;10.240;2023-05-10T10:20:14;12.13;;;9.57;;
80653;SDS011;70020;45.524;10.240;2023-05-10T10:22:41;12.18;;;9.70;;
80653;SDS011;70020;45.524;10.240;2023-05-10T10:25:07;11.23;;;8.87;;
80653;SDS011;70020;45.524;10.240;2023-05-10T10:30:23;9.65;;;8.35;;
80653;SDS011;70020;45.524;10.240;2023-05-10T10:36:02;8.27;;;7.38;;
80653;SDS011;70020;45.524;10.240;2023-05-10T10:38:54;10.80;;;8.27;;
80653;SDS011;70020;45.524;10.240;2023-05-10T10:41:38;12.05;;;8.85;;
80653;SDS011;70020;45.524;10.240;2023-05-10T10:49:34;12.57;;;8.80;;
80653;SDS011;70020;45.524;10.240;2023-05-10T10:54:58;13.13;;;8.07;;
80653;SDS011;70020;45.524;10.240;2023-05-10T11:00:38;9.85;;;6.85;;
80653;SDS011;70020;45.524;10.240;2023-05-10T11:03:08;8.10;;;7.22;;
80653;SDS011;70020;45.524;10.240;2023-05-10T11:08:17;10.07;;;7.85;;
80653;SDS011;70020;45.524;10.240;2023-05-10T11:15:54;7.70;;;6.90;;
80653;SDS011;70020;45.524;10.240;2023-05-10T11:18:29;9.02;;;7.03;;
80653;SDS011;70020;45.524;10.240;2023-05-10T11:23:29;8.65;;;7.53;;
80653;SDS011;70020;45.524;10.240;2023-05-10T11:25:56;11.38;;;7.45;;
80653;SDS011;70020;45.524;10.240;2023-05-10T11:28:22;9.80;;;7.43;;
80653;SDS011;70020;45.524;10.240;2023-05-10T11:33:18;9.88;;;8.88;;
80653;SDS011;70020;45.524;10.240;2023-05-10T11:35:44;11.38;;;9.55;;
80653;SDS011;70020;45.524;10.240;2023-05-10T11:38:12;12.25;;;10.95;;
80653;SDS011;70020;45.524;10.240;2023-05-10T11:40:39;14.95;;;12.07;;
80653;SDS011;70020;45.524;10.240;2023-05-10T11:43:05;16.15;;;13.95;;
80653;SDS011;70020;45.524;10.240;2023-05-10T11:45:31;21.17;;;17.55;;
80653;SDS011;70020;45.524;10.240;2023-05-10T11:47:58;20.95;;;18.73;;
80653;SDS011;70020;45.524;10.240;2023-05-10T11:50:24;22.38;;;19.98;;
80653;SDS011;70020;45.524;10.240;2023-05-10T11:52:53;22.95;;;19.23;;
80653;SDS011;70020;45.524;10.240;2023-05-10T11:55:23;22.33;;;18.52;;
80653;SDS011;70020;45.524;10.240;2023-05-10T11:57:51;22.73;;;20.30;;
80653;SDS011;70020;45.524;10.240;2023-05-10T12:00:18;27.55;;;22.35;;
80653;SDS011;70020;45.524;10.240;2023-05-10T12:02:44;26.48;;;22.80;;
80653;SDS011;70020;45.524;10.240;2023-05-10T12:05:10;25.15;;;21.80;;
80653;SDS011;70020;45.524;10.240;2023-05-10T12:07:36;23.80;;;20.45;;
80653;SDS011;70020;45.524;10.240;2023-05-10T12:10:25;24.30;;;20.53;;
80653;SDS011;70020;45.524;10.240;2023-05-10T12:12:51;23.58;;;19.80;;
80653;SDS011;70020;45.524;10.240;2023-05-10T12:17:47;18.65;;;15.63;;
80653;SDS011;70020;45.524;10.240;2023-05-10T12:22:40;17.23;;;15.32;;
80653;SDS011;70020;45.524;10.240;2023-05-10T12:25:09;16.63;;;13.43;;
80653;SDS011;70020;45.524;10.240;2023-05-10T12:30:01;11.73;;;10.35;;
80653;SDS011;70020;45.524;10.240;2023-05-10T12:32:37;12.98;;;10.27;;
80653;SDS011;70020;45.524;10.240;2023-05-10T12:35:03;13.43;;;10.05;;
80653;SDS011;70020;45.524;10.240;2023-05-10T12:39:55;7.35;;;6.10;;
80653;SDS011;70020;45.524;10.240;2023-05-10T12:42:21;6.57;;;5.68;;
80653;SDS011;70020;45.524;10.240;2023-05-10T12:44:48;7.57;;;6.20;;
80653;SDS011;70020;45.524;10.240;2023-05-10T12:47:13;6.80;;;6.10;;
80653;SDS011;70020;45.524;10.240;2023-05-10T12:49:39;8.20;;;6.70;;
80653;SDS011;70020;45.524;10.240;2023-05-10T12:52:04;6.90;;;6.20;;
80653;SDS011;70020;45.524;10.240;2023-05-10T12:54:30;6.73;;;6.03;;
80653;SDS011;70020;45.524;10.240;2023-05-10T12:56:56;6.32;;;5.57;;
80653;SDS011;70020;45.524;10.240;2023-05-10T12:59:22;9.23;;;6.60;;
80653;SDS011;70020;45.524;10.240;2023-05-10T13:01:47;6.80;;;6.10;;
80653;SDS011;70020;45.524;10.240;2023-05-10T13:04:13;7.03;;;6.00;;
80653;SDS011;70020;45.524;10.240;2023-05-10T13:06:39;8.02;;;6.53;;
80653;SDS011;70020;45.524;10.240;2023-05-10T13:09:05;8.60;;;6.38;;
80653;SDS011;70020;45.524;10.240;2023-05-10T13:11:31;6.47;;;5.35;;
80653;SDS011;70020;45.524;10.240;2023-05-10T13:13:57;6.80;;;6.03;;
80653;SDS011;70020;45.524;10.240;2023-05-10T13:16:23;7.93;;;6.13;;
80653;SDS011;70020;45.524;10.240;2023-05-10T13:18:48;9.35;;;6.15;;
80653;SDS011;70020;45.524;10.240;2023-05-10T13:21:14;6.33;;;5.73;;
80653;SDS011;70020;45.524;10.240;2023-05-10T13:23:40;8.50;;;6.60;;
80653;SDS011;70020;45.524;10.240;2023-05-10T13:26:06;7.38;;;6.55;;
80653;SDS011;70020;45.524;10.240;2023-05-10T13:28:32;7.18;;;5.88;;
80653;SDS011;70020;45.524;10.240;2023-05-10T13:30:57;8.52;;;6.45;;
80653;SDS011;70020;45.524;10.240;2023-05-10T13:33:24;7.40;;;6.55;;
80653;SDS011;70020;45.524;10.240;2023-05-10T13:35:51;7.57;;;6.55;;
80653;SDS011;70020;45.524;10.240;2023-05-10T13:38:17;10.02;;;6.50;;
80653;SDS011;70020;45.524;10.240;2023-05-10T13:40:42;9.50;;;6.80;;
80653;SDS011;70020;45.524;10.240;2023-05-10T13:43:08;8.85;;;6.90;;
80653;SDS011;70020;45.524;10.240;2023-05-10T13:45:33;7.13;;;6.45;;
80653;SDS011;70020;45.524;10.240;2023-05-10T13:47:59;7.33;;;6.53;;
80653;SDS011;70020;45.524;10.240;2023-05-10T13:50:25;7.63;;;6.35;;
80653;SDS011;70020;45.524;10.240;2023-05-10T13:52:51;8.25;;;6.80;;
80653;SDS011;70020;45.524;10.240;2023-05-10T13:55:16;7.88;;;7.00;;
80653;SDS011;70020;45.524;10.240;2023-05-10T13:57:42;8.93;;;7.32;;
80653;SDS011;70020;45.524;10.240;2023-05-10T14:00:09;10.07;;;7.95;;
80653;SDS011;70020;45.524;10.240;2023-05-10T14:05:01;8.43;;;7.25;;
80653;SDS011;70020;45.524;10.240;2023-05-10T14:07:26;8.43;;;7.53;;
80653;SDS011;70020;45.524;10.240;2023-05-10T14:09:58;8.90;;;8.00;;
80653;SDS011;70020;45.524;10.240;2023-05-10T14:12:24;9.15;;;8.23;;
80653;SDS011;70020;45.524;10.240;2023-05-10T14:17:15;9.47;;;7.80;;
80653;SDS011;70020;45.524;10.240;2023-05-10T14:19:44;9.23;;;8.32;;
80653;SDS011;70020;45.524;10.240;2023-05-10T14:22:10;8.23;;;7.43;;
80653;SDS011;70020;45.524;10.240;2023-05-10T14:24:35;9.33;;;8.43;;
80653;SDS011;70020;45.524;10.240;2023-05-10T14:27:01;9.10;;;8.20;;
80653;SDS011;70020;45.524;10.240;2023-05-10T14:29:27;10.40;;;8.27;;
80653;SDS011;70020;45.524;10.240;2023-05-10T14:31:52;8.65;;;7.85;;
80653;SDS011;70020;45.524;10.240;2023-05-10T14:34:18;9.57;;;8.67;;
80653;SDS011;70020;45.524;10.240;2023-05-10T14:36:44;10.15;;;9.10;;
80653;SDS011;70020;45.524;10.240;2023-05-10T14:39:09;9.63;;;8.73;;
80653;SDS011;70020;45.524;10.240;2023-05-10T14:41:37;8.93;;;8.02;;
80653;SDS011;70020;45.524;10.240;2023-05-10T14:44:04;11.32;;;8.05;;
80653;SDS011;70020;45.524;10.240;2023-05-10T14:46:29;9.57;;;8.57;;
80653;SDS011;70020;45.524;10.240;2023-05-10T14:48:55;10.07;;;8.20;;
80653;SDS011;70020;45.524;10.240;2023-05-10T14:53:50;10.45;;;8.35;;
80653;SDS011;70020;45.524;10.240;2023-05-10T14:56:16;7.93;;;7.07;;
80653;SDS011;70020;45.524;10.240;2023-05-10T14:58:42;8.10;;;7.30;;
80653;SDS011;70020;45.524;10.240;2023-05-10T15:01:08;8.65;;;7.75;;
80653;SDS011;70020;45.524;10.240;2023-05-10T15:03:33;8.85;;;7.95;;
80653;SDS011;70020;45.524;10.240;2023-05-10T15:05:59;9.50;;;8.13;;
80653;SDS011;70020;45.524;10.240;2023-05-10T15:08:25;10.37;;;8.30;;
80653;SDS011;70020;45.524;10.240;2023-05-10T15:10:51;8.77;;;7.97;;
80653;SDS011;70020;45.524;10.240;2023-05-10T15:13:16;9.77;;;8.02;;
80653;SDS011;70020;45.524;10.240;2023-05-10T15:15:42;11.17;;;8.90;;
80653;SDS011;70020;45.524;10.240;2023-05-10T15:18:13;9.77;;;8.37;;
80653;SDS011;70020;45.524;10.240;2023-05-10T15:20:39;9.85;;;8.85;;
80653;SDS011;70020;45.524;10.240;2023-05-10T15:23:05;10.80;;;9.38;;
80653;SDS011;70020;45.524;10.240;2023-05-10T15:25:31;11.45;;;9.65;;
80653;SDS011;70020;45.524;10.240;2023-05-10T15:28:00;9.27;;;8.38;;
80653;SDS011;70020;45.524;10.240;2023-05-10T15:30:27;9.50;;;8.15;;
80653;SDS011;70020;45.524;10.240;2023-05-10T15:32:53;10.18;;;9.13;;
80653;SDS011;70020;45.524;10.240;2023-05-10T15:35:19;9.20;;;8.30;;
80653;SDS011;70020;45.524;10.240;2023-05-10T15:37:46;10.13;;;9.13;;
80653;SDS011;70020;45.524;10.240;2023-05-10T15:40:15;8.13;;;7.32;;
80653;SDS011;70020;45.524;10.240;2023-05-10T15:42:40;9.30;;;8.40;;
80653;SDS011;70020;45.524;10.240;2023-05-10T15:45:06;12.00;;;8.40;;
80653;SDS011;70020;45.524;10.240;2023-05-10T15:49:58;8.80;;;7.90;;
80653;SDS011;70020;45.524;10.240;2023-05-10T15:52:24;8.75;;;7.85;;
80653;SDS011;70020;45.524;10.240;2023-05-10T15:54:49;9.70;;;8.70;;
80653;SDS011;70020;45.524;10.240;2023-05-10T15:57:15;11.23;;;9.48;;
80653;SDS011;70020;45.524;10.240;2023-05-10T15:59:41;10.77;;;9.67;;
80653;SDS011;70020;45.524;10.240;2023-05-10T16:02:08;10.70;;;9.68;;
80653;SDS011;70020;45.524;10.240;2023-05-10T16:04:35;11.27;;;10.18;;
80653;SDS011;70020;45.524;10.240;2023-05-10T16:07:01;12.82;;;10.52;;
80653;SDS011;70020;45.524;10.240;2023-05-10T16:11:54;11.52;;;8.60;;
80653;SDS011;70020;45.524;10.240;2023-05-10T16:14:20;10.23;;;9.20;;
80653;SDS011;70020;45.524;10.240;2023-05-10T16:16:48;10.95;;;9.70;;
80653;SDS011;70020;45.524;10.240;2023-05-10T16:19:14;11.18;;;10.07;;
80653;SDS011;70020;45.524;10.240;2023-05-10T16:21:40;11.10;;;9.90;;
80653;SDS011;70020;45.524;10.240;2023-05-10T16:24:05;10.90;;;9.80;;
80653;SDS011;70020;45.524;10.240;2023-05-10T16:26:31;11.05;;;9.88;;
80653;SDS011;70020;45.524;10.240;2023-05-10T16:28:58;11.20;;;9.95;;
80653;SDS011;70020;45.524;10.240;2023-05-10T16:31:24;11.65;;;9.98;;
80653;SDS011;70020;45.524;10.240;2023-05-10T16:33:50;11.35;;;10.13;;
80653;SDS011;70020;45.524;10.240;2023-05-10T16:38:42;11.88;;;9.93;;
80653;SDS011;70020;45.524;10.240;2023-05-10T16:41:08;11.05;;;9.05;;
80653;SDS011;70020;45.524;10.240;2023-05-10T16:43:34;10.95;;;9.93;;
80653;SDS011;70020;45.524;10.240;2023-05-10T16:46:00;11.65;;;10.40;;
80653;SDS011;70020;45.524;10.240;2023-05-10T16:48:26;11.05;;;9.95;;
80653;SDS011;70020;45.524;10.240;2023-05-10T16:50:52;11.73;;;10.53;;
80653;SDS011;70020;45.524;10.240;2023-05-10T16:53:17;14.23;;;12.83;;
80653;SDS011;70020;45.524;10.240;2023-05-10T16:55:43;14.43;;;12.90;;
80653;SDS011;70020;45.524;10.240;2023-05-10T16:58:09;16.13;;;13.52;;
80653;SDS011;70020;45.524;10.240;2023-05-10T17:00:34;16.00;;;14.38;;
80653;SDS011;70020;45.524;10.240;2023-05-10T17:03:00;17.33;;;15.45;;
80653;SDS011;70020;45.524;10.240;2023-05-10T17:05:26;16.43;;;14.73;;
80653;SDS011;70020;45.524;10.240;2023-05-10T17:07:51;16.07;;;14.13;;
80653;SDS011;70020;45.524;10.240;2023-05-10T17:10:17;14.27;;;12.03;;
80653;SDS011;70020;45.524;10.240;2023-05-10T17:12:43;14.30;;;12.57;;
80653;SDS011;70020;45.524;10.240;2023-05-10T17:15:09;14.45;;;12.98;;
80653;SDS011;70020;45.524;10.240;2023-05-10T17:17:35;12.48;;;11.15;;
80653;SDS011;70020;45.524;10.240;2023-05-10T17:20:01;14.77;;;11.98;;
80653;SDS011;70020;45.524;10.240;2023-05-10T17:22:28;12.95;;;11.55;;
80653;SDS011;70020;45.524;10.240;2023-05-10T17:27:20;12.65;;;10.40;;
80653;SDS011;70020;45.524;10.240;2023-05-10T17:32:12;12.88;;;11.52;;
80653;SDS011;70020;45.524;10.240;2023-05-10T17:34:38;13.55;;;11.45;;
80653;SDS011;70020;45.524;10.240;2023-05-10T17:37:04;13.38;;;11.77;;
80653;SDS011;70020;45.524;10.240;2023-05-10T17:39:29;13.80;;;12.40;;
80653;SDS011;70020;45.524;10.240;2023-05-10T17:41:54;15.20;;;13.60;;
80653;SDS011;70020;45.524;10.240;2023-05-10T17:44:20;16.90;;;13.60;;
80653;SDS011;70020;45.524;10.240;2023-05-10T17:46:45;15.13;;;13.53;;
80653;SDS011;70020;45.524;10.240;2023-05-10T17:49:11;14.55;;;13.02;;
80653;SDS011;70020;45.524;10.240;2023-05-10T17:51:37;15.27;;;13.67;;
80653;SDS011;70020;45.524;10.240;2023-05-10T17:54:03;16.63;;;13.75;;
80653;SDS011;70020;45.524;10.240;2023-05-10T17:56:28;13.03;;;11.73;;
80653;SDS011;70020;45.524;10.240;2023-05-10T17:58:54;15.20;;;13.70;;
80653;SDS011;70020;45.524;10.240;2023-05-10T18:01:20;14.73;;;13.23;;
80653;SDS011;70020;45.524;10.240;2023-05-10T18:03:47;14.83;;;12.57;;
80653;SDS011;70020;45.524;10.240;2023-05-10T18:06:13;15.13;;;13.30;;
80653;SDS011;70020;45.524;10.240;2023-05-10T18:08:39;15.18;;;13.57;;
80653;SDS011;70020;45.524;10.240;2023-05-10T18:11:05;14.75;;;12.93;;
80653;SDS011;70020;45.524;10.240;2023-05-10T18:13:31;14.80;;;13.30;;
80653;SDS011;70020;45.524;10.240;2023-05-10T18:15:57;14.77;;;13.15;;
80653;SDS011;70020;45.524;10.240;2023-05-10T18:18:23;14.70;;;13.20;;
80653;SDS011;70020;45.524;10.240;2023-05-10T18:20:49;15.25;;;13.25;;
80653;SDS011;70020;45.524;10.240;2023-05-10T18:23:20;16.48;;;13.75;;
80653;SDS011;70020;45.524;10.240;2023-05-10T18:28:12;16.65;;;14.38;;
80653;SDS011;70020;45.524;10.240;2023-05-10T18:30:39;18.95;;;14.90;;
80653;SDS011;70020;45.524;10.240;2023-05-10T18:33:04;19.05;;;15.32;;
80653;SDS011;70020;45.524;10.240;2023-05-10T18:35:30;17.42;;;15.43;;
80653;SDS011;70020;45.524;10.240;2023-05-10T18:37:56;16.83;;;14.60;;
80653;SDS011;70020;45.524;10.240;2023-05-10T18:40:22;17.63;;;15.48;;
80653;SDS011;70020;45.524;10.240;2023-05-10T18:42:47;16.90;;;15.15;;
80653;SDS011;70020;45.524;10.240;2023-05-10T18:45:14;15.48;;;13.73;;
80653;SDS011;70020;45.524;10.240;2023-05-10T18:47:40;17.63;;;14.50;;
80653;SDS011;70020;45.524;10.240;2023-05-10T18:50:06;16.73;;;14.85;;
80653;SDS011;70020;45.524;10.240;2023-05-10T18:52:32;18.10;;;14.93;;
80653;SDS011;70020;45.524;10.240;2023-05-10T18:54:57;18.88;;;16.20;;
80653;SDS011;70020;45.524;10.240;2023-05-10T18:57:23;17.33;;;15.55;;
80653;SDS011;70020;45.524;10.240;2023-05-10T18:59:49;16.30;;;14.68;;
80653;SDS011;70020;45.524;10.240;2023-05-10T19:02:14;17.17;;;15.38;;
80653;SDS011;70020;45.524;10.240;2023-05-10T19:04:45;16.98;;;14.88;;
80653;SDS011;70020;45.524;10.240;2023-05-10T19:07:11;18.60;;;14.85;;
80653;SDS011;70020;45.524;10.240;2023-05-10T19:09:38;18.15;;;14.75;;
80653;SDS011;70020;45.524;10.240;2023-05-10T19:12:04;16.90;;;15.10;;
80653;SDS011;70020;45.524;10.240;2023-05-10T19:14:32;17.00;;;15.20;;
80653;SDS011;70020;45.524;10.240;2023-05-10T19:16:59;17.13;;;15.20;;
80653;SDS011;70020;45.524;10.240;2023-05-10T19:19:26;17.83;;;15.98;;
80653;SDS011;70020;45.524;10.240;2023-05-10T19:21:52;22.77;;;16.65;;
80653;SDS011;70020;45.524;10.240;2023-05-10T19:26:47;17.02;;;15.27;;
80653;SDS011;70020;45.524;10.240;2023-05-10T19:29:13;17.52;;;14.75;;
80653;SDS011;70020;45.524;10.240;2023-05-10T19:31:40;17.55;;;15.70;;
80653;SDS011;70020;45.524;10.240;2023-05-10T19:34:05;21.33;;;16.40;;
80653;SDS011;70020;45.524;10.240;2023-05-10T19:38:58;18.50;;;16.52;;
80653;SDS011;70020;45.524;10.240;2023-05-10T19:41:23;17.65;;;15.75;;
80653;SDS011;70020;45.524;10.240;2023-05-10T19:43:50;20.80;;;17.48;;
80653;SDS011;70020;45.524;10.240;2023-05-10T19:46:15;19.80;;;17.30;;
80653;SDS011;70020;45.524;10.240;2023-05-10T19:48:42;19.88;;;17.77;;
80653;SDS011;70020;45.524;10.240;2023-05-10T19:51:08;19.95;;;16.88;;
80653;SDS011;70020;45.524;10.240;2023-05-10T19:53:34;19.42;;;16.90;;
80653;SDS011;70020;45.524;10.240;2023-05-10T19:56:03;8.05;;;6.45;;
80653;SDS011;70020;45.524;10.240;2023-05-10T19:58:30;9.05;;;7.28;;
80653;SDS011;70020;45.524;10.240;2023-05-10T20:00:57;7.38;;;6.28;;
80653;SDS011;70020;45.524;10.240;2023-05-10T20:03:25;7.40;;;5.95;;
80653;SDS011;70020;45.524;10.240;2023-05-10T20:05:52;8.05;;;6.55;;
80653;SDS011;70020;45.524;10.240;2023-05-10T20:08:18;9.27;;;7.00;;
80653;SDS011;70020;45.524;10.240;2023-05-10T20:10:47;9.82;;;7.47;;
80653;SDS011;70020;45.524;10.240;2023-05-10T20:13:18;10.48;;;7.32;;
80653;SDS011;70020;45.524;10.240;2023-05-10T20:15:48;9.48;;;7.97;;
80653;SDS011;70020;45.524;10.240;2023-05-10T20:18:14;10.05;;;8.20;;
80653;SDS011;70020;45.524;10.240;2023-05-10T20:20:40;11.40;;;8.25;;
80653;SDS011;70020;45.524;10.240;2023-05-10T20:23:06;11.90;;;8.48;;
80653;SDS011;70020;45.524;10.240;2023-05-10T20:27:59;12.00;;;8.05;;
80653;SDS011;70020;45.524;10.240;2023-05-10T20:32:50;8.75;;;6.10;;
80653;SDS011;70020;45.524;10.240;2023-05-10T20:35:16;6.65;;;5.00;;
80653;SDS011;70020;45.524;10.240;2023-05-10T20:37:42;6.30;;;3.33;;
80653;SDS011;70020;45.524;10.240;2023-05-10T20:40:08;4.57;;;2.05;;
80653;SDS011;70020;45.524;10.240;2023-05-10T20:42:36;3.03;;;1.38;;
80653;SDS011;70020;45.524;10.240;2023-05-10T20:45:02;3.53;;;1.95;;
80653;SDS011;70020;45.524;10.240;2023-05-10T20:47:28;2.45;;;1.50;;
80653;SDS011;70020;45.524;10.240;2023-05-10T20:49:54;2.63;;;1.48;;
80653;SDS011;70020;45.524;10.240;2023-05-10T20:52:21;3.17;;;1.50;;
80653;SDS011;70020;45.524;10.240;2023-05-10T20:54:47;2.65;;;1.40;;
80653;SDS011;70020;45.524;10.240;2023-05-10T20:57:13;2.00;;;1.42;;
80653;SDS011;70020;45.524;10.240;2023-05-10T20:59:38;2.77;;;0.90;;
80653;SDS011;70020;45.524;10.240;2023-05-10T21:02:05;6.13;;;1.25;;
80653;SDS011;70020;45.524;10.240;2023-05-10T21:04:31;1.17;;;0.75;;
80653;SDS011;70020;45.524;10.240;2023-05-10T21:06:57;1.00;;;0.50;;
80653;SDS011;70020;45.524;10.240;2023-05-10T21:09:23;1.55;;;0.60;;
80653;SDS011;70020;45.524;10.240;2023-05-10T21:11:49;2.08;;;0.40;;
80653;SDS011;70020;45.524;10.240;2023-05-10T21:14:15;1.35;;;0.65;;
80653;SDS011;70020;45.524;10.240;2023-05-10T21:16:40;0.53;;;0.53;;
80653;SDS011;70020;45.524;10.240;2023-05-10T21:19:06;2.83;;;0.73;;
80653;SDS011;70020;45.524;10.240;2023-05-10T21:21:32;1.85;;;0.50;;
80653;SDS011;70020;45.524;10.240;2023-05-10T21:23:58;1.98;;;0.52;;
80653;SDS011;70020;45.524;10.240;2023-05-10T21:26:23;0.40;;;0.40;;
80653;SDS011;70020;45.524;10.240;2023-05-10T21:28:49;0.50;;;0.40;;
80653;SDS011;70020;45.524;10.240;2023-05-10T21:31:14;2.27;;;0.50;;
80653;SDS011;70020;45.524;10.240;2023-05-10T21:36:06;2.45;;;0.68;;
80653;SDS011;70020;45.524;10.240;2023-05-10T21:38:32;2.88;;;0.80;;
80653;SDS011;70020;45.524;10.240;2023-05-10T21:40:57;1.33;;;0.80;;
80653;SDS011;70020;45.524;10.240;2023-05-10T21:43:23;3.80;;;1.08;;
80653;SDS011;70020;45.524;10.240;2023-05-10T21:45:49;3.80;;;0.73;;
80653;SDS011;70020;45.524;10.240;2023-05-10T21:48:14;1.90;;;0.95;;
80653;SDS011;70020;45.524;10.240;2023-05-10T21:50:41;1.42;;;0.70;;
80653;SDS011;70020;45.524;10.240;2023-05-10T21:53:07;2.78;;;0.77;;
80653;SDS011;70020;45.524;10.240;2023-05-10T21:55:33;0.73;;;0.57;;
80653;SDS011;70020;45.524;10.240;2023-05-10T21:57:59;2.35;;;0.77;;
80653;SDS011;70020;45.524;10.240;2023-05-10T22:00:24;1.93;;;0.80;;
80653;SDS011;70020;45.524;10.240;2023-05-10T22:02:50;3.73;;;0.87;;
80653;SDS011;70020;45.524;10.240;2023-05-10T22:05:16;1.83;;;0.80;;
80653;SDS011;70020;45.524;10.240;2023-05-10T22:07:42;0.70;;;0.60;;
80653;SDS011;70020;45.524;10.240;2023-05-10T22:10:08;3.28;;;0.65;;